Gothenburg, NE (69138)

2:39 PM CDT on September 30, 2016 (GMT -0500)
KNEGOTHE4 | | Change Station

Elev 2572 ft 40.92 °N, 100.17 °W | Updated 4 minutes ago

Clear
Clear
66.9 °F
Feels Like 66.9 °F
N
5.0
Wind Variable Wind from SSE
Gusts 8.0 mph

Today
High -- | Low -- °F
--% Chance of Precip.
Yesterday
High -- | Low -- °F
Precip. -- in
Pressure 30.21 in
Visibility 10.0 miles
Clouds Clear
Dew Point 49 °F
Humidity 52%
Rainfall in
Snow Depth Not available.
7:36 AM 7:23 PM
Waning Crescent, 0% visible
METAR KLXN 301915Z AUTO 14009KT 10SM CLR 20/07 A3021 RMK AO2 T02020065
Pressure 30.21 in
Visibility 10.0 miles
Clouds Clear
Dew Point 49 °F
Humidity 52%
Rainfall in
Snow Depth Not available.
7:36 AM 7:23 PM
Waning Crescent, 0% visible
METAR KLXN 301915Z AUTO 14009KT 10SM CLR 20/07 A3021 RMK AO2 T02020065

10-Day Weather Forecast

Almanac

Astronomy

Sep. 30, 2016 Rise Set
Actual Time
Civil Twilight
Nautical Twilight
Astronomical Twilight
Moon
Length of Visible Light
Length of Day
Tomorrow will be .
, % of the Moon is Illuminated

Today's Extremes

State Highs State Lows

Community

WunderPhotos

Upload Photos

1,942,762 photos uploaded!

WunderBlog® & News

Nearby

Air Quality

  Air Quality AQ Index Pollutant
Not available.

Snow Depth

Station Depth Elevation

Earthquake Activity

City Distance Mag. Time & Date
Minimum magnitude displayed is 2.5.

Coastal Water Temperatures

Place Temperature

Stations

Nearby Weather Stations

Station Location Temp. Windchill Dew Point Humidity Wind Precip. Elev Updated Type
                   

Watches & Warnings

There are currently no watches in effect.